sensor_id;sensor_type;location;lat;lon;timestamp;temperature;humidity
17128;DHT22;8679;50.842;4.322;2023-07-16T00:01:59;17.30;31.70
17128;DHT22;8679;50.842;4.322;2023-07-16T00:04:25;17.30;38.70
17128;DHT22;8679;50.842;4.322;2023-07-16T00:06:50;17.20;33.60
17128;DHT22;8679;50.842;4.322;2023-07-16T00:09:16;17.20;25.10
17128;DHT22;8679;50.842;4.322;2023-07-16T00:11:42;17.20;24.70
17128;DHT22;8679;50.842;4.322;2023-07-16T00:14:07;17.20;34.10
17128;DHT22;8679;50.842;4.322;2023-07-16T00:16:33;17.20;23.80
17128;DHT22;8679;50.842;4.322;2023-07-16T00:18:59;17.20;36.90
17128;DHT22;8679;50.842;4.322;2023-07-16T00:21:24;17.10;43.70
17128;DHT22;8679;50.842;4.322;2023-07-16T00:23:50;17.10;47.30
17128;DHT22;8679;50.842;4.322;2023-07-16T00:26:16;17.00;66.90
17128;DHT22;8679;50.842;4.322;2023-07-16T00:28:42;17.00;82.50
17128;DHT22;8679;50.842;4.322;2023-07-16T00:31:07;17.00;56.90
17128;DHT22;8679;50.842;4.322;2023-07-16T00:33:33;16.90;59.20
17128;DHT22;8679;50.842;4.322;2023-07-16T00:35:58;17.00;84.70
17128;DHT22;8679;50.842;4.322;2023-07-16T00:38:24;16.90;53.30
17128;DHT22;8679;50.842;4.322;2023-07-16T00:40:50;16.90;76.00
17128;DHT22;8679;50.842;4.322;2023-07-16T00:43:15;16.80;94.80
17128;DHT22;8679;50.842;4.322;2023-07-16T00:45:42;16.90;93.70
17128;DHT22;8679;50.842;4.322;2023-07-16T00:48:10;16.90;86.00
17128;DHT22;8679;50.842;4.322;2023-07-16T00:50:37;16.80;87.20
17128;DHT22;8679;50.842;4.322;2023-07-16T00:53:06;16.90;99.90
17128;DHT22;8679;50.842;4.322;2023-07-16T00:55:32;16.80;99.90
17128;DHT22;8679;50.842;4.322;2023-07-16T00:58:02;16.80;99.90
17128;DHT22;8679;50.842;4.322;2023-07-16T01:00:31;16.80;99.90
17128;DHT22;8679;50.842;4.322;2023-07-16T01:02:57;16.80;99.90
17128;DHT22;8679;50.842;4.322;2023-07-16T01:05:24;16.80;99.90
17128;DHT22;8679;50.842;4.322;2023-07-16T01:07:59;16.80;99.90
17128;DHT22;8679;50.842;4.322;2023-07-16T01:10:26;16.80;89.20
17128;DHT22;8679;50.842;4.322;2023-07-16T01:12:54;16.80;1.00
17128;DHT22;8679;50.842;4.322;2023-07-16T01:15:20;17.00;1.00
17128;DHT22;8679;50.842;4.322;2023-07-16T01:17:46;17.00;1.00
17128;DHT22;8679;50.842;4.322;2023-07-16T01:20:11;17.10;99.90
17128;DHT22;8679;50.842;4.322;2023-07-16T01:25:51;17.20;1.00
17128;DHT22;8679;50.842;4.322;2023-07-16T01:28:48;17.10;99.90
17128;DHT22;8679;50.842;4.322;2023-07-16T01:31:19;17.10;1.00
17128;DHT22;8679;50.842;4.322;2023-07-16T01:33:47;17.10;1.00
17128;DHT22;8679;50.842;4.322;2023-07-16T01:36:14;17.10;1.00
17128;DHT22;8679;50.842;4.322;2023-07-16T01:38:40;17.10;99.90
17128;DHT22;8679;50.842;4.322;2023-07-16T01:41:06;17.10;1.00
17128;DHT22;8679;50.842;4.322;2023-07-16T01:43:31;17.00;1.00
17128;DHT22;8679;50.842;4.322;2023-07-16T01:45:57;17.00;99.90
17128;DHT22;8679;50.842;4.322;2023-07-16T01:48:34;16.90;99.90
17128;DHT22;8679;50.842;4.322;2023-07-16T01:51:01;16.90;99.90
17128;DHT22;8679;50.842;4.322;2023-07-16T01:53:27;16.90;1.00
17128;DHT22;8679;50.842;4.322;2023-07-16T01:55:52;16.80;99.90
17128;DHT22;8679;50.842;4.322;2023-07-16T01:58:18;16.80;99.90
17128;DHT22;8679;50.842;4.322;2023-07-16T02:00:44;16.70;1.00
17128;DHT22;8679;50.842;4.322;2023-07-16T02:03:09;16.70;20.80
17128;DHT22;8679;50.842;4.322;2023-07-16T02:05:35;16.50;1.00
17128;DHT22;8679;50.842;4.322;2023-07-16T02:08:01;16.50;1.00
17128;DHT22;8679;50.842;4.322;2023-07-16T02:10:26;16.50;1.00
17128;DHT22;8679;50.842;4.322;2023-07-16T02:12:52;16.50;69.00
17128;DHT22;8679;50.842;4.322;2023-07-16T02:15:18;16.50;1.00
17128;DHT22;8679;50.842;4.322;2023-07-16T02:17:44;16.50;99.90
17128;DHT22;8679;50.842;4.322;2023-07-16T02:20:10;16.50;99.90
17128;DHT22;8679;50.842;4.322;2023-07-16T02:22:36;16.50;1.00
17128;DHT22;8679;50.842;4.322;2023-07-16T02:25:02;16.60;1.00
17128;DHT22;8679;50.842;4.322;2023-07-16T02:27:28;16.60;87.60
17128;DHT22;8679;50.842;4.322;2023-07-16T02:29:54;16.60;1.00
17128;DHT22;8679;50.842;4.322;2023-07-16T02:32:20;16.50;1.00
17128;DHT22;8679;50.842;4.322;2023-07-16T02:34:45;16.60;1.00
17128;DHT22;8679;50.842;4.322;2023-07-16T02:37:11;16.50;99.90
17128;DHT22;8679;50.842;4.322;2023-07-16T02:39:38;16.60;99.90
17128;DHT22;8679;50.842;4.322;2023-07-16T02:42:04;16.60;1.00
17128;DHT22;8679;50.842;4.322;2023-07-16T02:44:30;16.60;1.00
17128;DHT22;8679;50.842;4.322;2023-07-16T02:46:56;16.60;1.00
17128;DHT22;8679;50.842;4.322;2023-07-16T02:49:21;16.60;1.00
17128;DHT22;8679;50.842;4.322;2023-07-16T02:51:47;16.60;1.00
17128;DHT22;8679;50.842;4.322;2023-07-16T02:54:13;16.60;1.00
17128;DHT22;8679;50.842;4.322;2023-07-16T02:56:39;16.60;1.00
17128;DHT22;8679;50.842;4.322;2023-07-16T02:59:04;16.60;1.00
17128;DHT22;8679;50.842;4.322;2023-07-16T03:01:30;16.50;1.00
17128;DHT22;8679;50.842;4.322;2023-07-16T03:03:56;16.50;1.00
17128;DHT22;8679;50.842;4.322;2023-07-16T03:06:21;16.40;1.00
17128;DHT22;8679;50.842;4.322;2023-07-16T03:08:47;16.40;1.00
17128;DHT22;8679;50.842;4.322;2023-07-16T03:11:13;16.30;99.90
17128;DHT22;8679;50.842;4.322;2023-07-16T03:13:39;16.30;99.90
17128;DHT22;8679;50.842;4.322;2023-07-16T03:16:05;16.40;99.90
17128;DHT22;8679;50.842;4.322;2023-07-16T03:18:31;16.40;99.90
17128;DHT22;8679;50.842;4.322;2023-07-16T03:20:57;16.40;99.90
17128;DHT22;8679;50.842;4.322;2023-07-16T03:23:23;16.40;99.90
17128;DHT22;8679;50.842;4.322;2023-07-16T03:25:49;16.40;99.90
17128;DHT22;8679;50.842;4.322;2023-07-16T03:28:15;16.40;99.90
17128;DHT22;8679;50.842;4.322;2023-07-16T03:30:46;16.40;99.90
17128;DHT22;8679;50.842;4.322;2023-07-16T03:33:11;16.40;99.90
17128;DHT22;8679;50.842;4.322;2023-07-16T03:35:37;16.30;1.00
17128;DHT22;8679;50.842;4.322;2023-07-16T03:38:03;16.30;1.00
17128;DHT22;8679;50.842;4.322;2023-07-16T03:40:29;16.30;1.00
17128;DHT22;8679;50.842;4.322;2023-07-16T03:42:55;16.30;99.90
17128;DHT22;8679;50.842;4.322;2023-07-16T03:45:21;16.30;99.90
17128;DHT22;8679;50.842;4.322;2023-07-16T03:47:46;16.30;99.90
17128;DHT22;8679;50.842;4.322;2023-07-16T03:50:12;16.30;99.90
17128;DHT22;8679;50.842;4.322;2023-07-16T03:52:38;16.30;99.90
17128;DHT22;8679;50.842;4.322;2023-07-16T03:55:04;16.30;99.90
17128;DHT22;8679;50.842;4.322;2023-07-16T03:57:30;16.20;1.00
17128;DHT22;8679;50.842;4.322;2023-07-16T03:59:55;16.20;20.40
17128;DHT22;8679;50.842;4.322;2023-07-16T04:02:21;16.10;99.90
17128;DHT22;8679;50.842;4.322;2023-07-16T04:04:47;16.10;1.00
17128;DHT22;8679;50.842;4.322;2023-07-16T04:07:12;16.10;1.00
17128;DHT22;8679;50.842;4.322;2023-07-16T04:09:39;16.00;1.00
17128;DHT22;8679;50.842;4.322;2023-07-16T04:12:05;16.10;1.00
17128;DHT22;8679;50.842;4.322;2023-07-16T04:14:32;16.10;99.90
17128;DHT22;8679;50.842;4.322;2023-07-16T04:16:57;16.10;1.00
17128;DHT22;8679;50.842;4.322;2023-07-16T04:19:23;16.10;1.00
17128;DHT22;8679;50.842;4.322;2023-07-16T04:21:49;16.20;1.00
17128;DHT22;8679;50.842;4.322;2023-07-16T04:24:14;16.20;1.00
17128;DHT22;8679;50.842;4.322;2023-07-16T04:26:40;16.20;1.00
17128;DHT22;8679;50.842;4.322;2023-07-16T04:29:06;16.10;1.00
17128;DHT22;8679;50.842;4.322;2023-07-16T04:31:31;16.10;1.00
17128;DHT22;8679;50.842;4.322;2023-07-16T04:33:57;16.10;99.90
17128;DHT22;8679;50.842;4.322;2023-07-16T04:36:23;16.10;99.90
17128;DHT22;8679;50.842;4.322;2023-07-16T04:38:48;16.10;1.00
17128;DHT22;8679;50.842;4.322;2023-07-16T04:41:15;16.10;1.00
17128;DHT22;8679;50.842;4.322;2023-07-16T04:43:41;16.10;1.00
17128;DHT22;8679;50.842;4.322;2023-07-16T04:46:07;16.10;1.00
17128;DHT22;8679;50.842;4.322;2023-07-16T04:48:32;16.00;1.00
17128;DHT22;8679;50.842;4.322;2023-07-16T04:50:58;16.10;1.00
17128;DHT22;8679;50.842;4.322;2023-07-16T04:53:25;16.10;1.00
17128;DHT22;8679;50.842;4.322;2023-07-16T04:55:50;16.10;1.00
17128;DHT22;8679;50.842;4.322;2023-07-16T04:58:16;16.00;99.90
17128;DHT22;8679;50.842;4.322;2023-07-16T05:00:42;16.00;99.90
17128;DHT22;8679;50.842;4.322;2023-07-16T05:03:08;16.10;1.00
17128;DHT22;8679;50.842;4.322;2023-07-16T05:05:34;16.10;1.00
17128;DHT22;8679;50.842;4.322;2023-07-16T05:08:01;16.20;99.90
17128;DHT22;8679;50.842;4.322;2023-07-16T05:10:27;16.30;99.90
17128;DHT22;8679;50.842;4.322;2023-07-16T05:12:53;16.30;1.00
17128;DHT22;8679;50.842;4.322;2023-07-16T05:15:19;16.30;1.00
17128;DHT22;8679;50.842;4.322;2023-07-16T05:17:44;16.30;1.00
17128;DHT22;8679;50.842;4.322;2023-07-16T05:20:10;16.30;1.00
17128;DHT22;8679;50.842;4.322;2023-07-16T05:22:36;16.30;10.70
17128;DHT22;8679;50.842;4.322;2023-07-16T05:25:02;16.40;1.00
17128;DHT22;8679;50.842;4.322;2023-07-16T05:27:28;16.50;1.00
17128;DHT22;8679;50.842;4.322;2023-07-16T05:29:54;16.50;1.00
17128;DHT22;8679;50.842;4.322;2023-07-16T05:32:19;16.50;99.90
17128;DHT22;8679;50.842;4.322;2023-07-16T05:34:45;16.50;1.00
17128;DHT22;8679;50.842;4.322;2023-07-16T05:37:11;16.50;1.00
17128;DHT22;8679;50.842;4.322;2023-07-16T05:39:37;16.60;1.00
17128;DHT22;8679;50.842;4.322;2023-07-16T05:42:03;16.50;17.00
17128;DHT22;8679;50.842;4.322;2023-07-16T05:44:29;16.60;1.00
17128;DHT22;8679;50.842;4.322;2023-07-16T05:46:55;16.70;1.00
17128;DHT22;8679;50.842;4.322;2023-07-16T05:49:21;16.70;1.00
17128;DHT22;8679;50.842;4.322;2023-07-16T05:51:46;16.70;1.00
17128;DHT22;8679;50.842;4.322;2023-07-16T05:54:12;16.70;1.00
17128;DHT22;8679;50.842;4.322;2023-07-16T05:56:38;16.80;1.00
17128;DHT22;8679;50.842;4.322;2023-07-16T05:59:04;16.80;1.00
17128;DHT22;8679;50.842;4.322;2023-07-16T06:01:29;16.90;99.90
17128;DHT22;8679;50.842;4.322;2023-07-16T06:03:55;16.80;1.00
17128;DHT22;8679;50.842;4.322;2023-07-16T06:06:20;16.90;1.00
17128;DHT22;8679;50.842;4.322;2023-07-16T06:08:46;16.90;1.00
17128;DHT22;8679;50.842;4.322;2023-07-16T06:11:12;17.00;1.00
17128;DHT22;8679;50.842;4.322;2023-07-16T06:13:38;17.00;1.00
17128;DHT22;8679;50.842;4.322;2023-07-16T06:16:04;17.10;1.00
17128;DHT22;8679;50.842;4.322;2023-07-16T06:18:30;17.20;1.00
17128;DHT22;8679;50.842;4.322;2023-07-16T06:20:58;17.10;99.90
17128;DHT22;8679;50.842;4.322;2023-07-16T06:23:24;17.20;99.90
17128;DHT22;8679;50.842;4.322;2023-07-16T06:25:57;17.20;99.90
17128;DHT22;8679;50.842;4.322;2023-07-16T06:28:23;17.20;99.90
17128;DHT22;8679;50.842;4.322;2023-07-16T06:30:50;17.30;99.90
17128;DHT22;8679;50.842;4.322;2023-07-16T06:33:18;17.30;1.00
17128;DHT22;8679;50.842;4.322;2023-07-16T06:35:45;17.40;1.00
17128;DHT22;8679;50.842;4.322;2023-07-16T06:38:11;17.40;1.00
17128;DHT22;8679;50.842;4.322;2023-07-16T06:40:37;17.40;1.00
17128;DHT22;8679;50.842;4.322;2023-07-16T06:43:03;17.40;99.90
17128;DHT22;8679;50.842;4.322;2023-07-16T06:45:28;17.60;99.90
17128;DHT22;8679;50.842;4.322;2023-07-16T06:47:54;17.60;13.20
17128;DHT22;8679;50.842;4.322;2023-07-16T06:50:19;17.60;99.90
17128;DHT22;8679;50.842;4.322;2023-07-16T06:52:45;17.70;1.00
17128;DHT22;8679;50.842;4.322;2023-07-16T06:55:11;17.80;1.00
17128;DHT22;8679;50.842;4.322;2023-07-16T06:57:36;17.90;1.00
17128;DHT22;8679;50.842;4.322;2023-07-16T07:00:02;17.80;99.90
17128;DHT22;8679;50.842;4.322;2023-07-16T07:02:29;17.70;99.90
17128;DHT22;8679;50.842;4.322;2023-07-16T07:04:55;17.70;1.00
17128;DHT22;8679;50.842;4.322;2023-07-16T07:07:20;17.90;1.00
17128;DHT22;8679;50.842;4.322;2023-07-16T07:09:49;17.90;1.00
17128;DHT22;8679;50.842;4.322;2023-07-16T07:12:15;18.00;1.00
17128;DHT22;8679;50.842;4.322;2023-07-16T07:14:40;18.00;99.90
17128;DHT22;8679;50.842;4.322;2023-07-16T07:17:06;18.00;99.90
17128;DHT22;8679;50.842;4.322;2023-07-16T07:19:32;18.00;99.90
17128;DHT22;8679;50.842;4.322;2023-07-16T07:21:58;18.00;99.90
17128;DHT22;8679;50.842;4.322;2023-07-16T07:24:23;18.10;99.90
17128;DHT22;8679;50.842;4.322;2023-07-16T07:26:49;18.20;99.90
17128;DHT22;8679;50.842;4.322;2023-07-16T07:29:14;18.20;1.00
17128;DHT22;8679;50.842;4.322;2023-07-16T07:31:40;18.30;1.00
17128;DHT22;8679;50.842;4.322;2023-07-16T07:34:06;18.40;1.00
17128;DHT22;8679;50.842;4.322;2023-07-16T07:36:31;18.60;1.00
17128;DHT22;8679;50.842;4.322;2023-07-16T07:38:57;18.60;99.90
17128;DHT22;8679;50.842;4.322;2023-07-16T07:41:23;18.70;99.90
17128;DHT22;8679;50.842;4.322;2023-07-16T07:43:48;18.60;99.90
17128;DHT22;8679;50.842;4.322;2023-07-16T07:46:14;18.70;99.90
17128;DHT22;8679;50.842;4.322;2023-07-16T07:48:39;18.70;1.00
17128;DHT22;8679;50.842;4.322;2023-07-16T07:51:05;18.70;1.00
17128;DHT22;8679;50.842;4.322;2023-07-16T07:53:31;18.80;2.70
17128;DHT22;8679;50.842;4.322;2023-07-16T07:55:57;18.90;1.00
17128;DHT22;8679;50.842;4.322;2023-07-16T07:58:23;18.90;1.00
17128;DHT22;8679;50.842;4.322;2023-07-16T08:00:48;18.80;99.90
17128;DHT22;8679;50.842;4.322;2023-07-16T08:03:14;18.80;99.90
17128;DHT22;8679;50.842;4.322;2023-07-16T08:05:40;18.90;99.90
17128;DHT22;8679;50.842;4.322;2023-07-16T08:08:05;18.90;99.90
17128;DHT22;8679;50.842;4.322;2023-07-16T08:10:31;18.80;99.90
17128;DHT22;8679;50.842;4.322;2023-07-16T08:12:57;18.80;99.90
17128;DHT22;8679;50.842;4.322;2023-07-16T08:15:22;18.80;99.90
17128;DHT22;8679;50.842;4.322;2023-07-16T08:17:48;19.00;99.90
17128;DHT22;8679;50.842;4.322;2023-07-16T08:20:14;19.20;99.90
17128;DHT22;8679;50.842;4.322;2023-07-16T08:22:40;19.20;81.80
17128;DHT22;8679;50.842;4.322;2023-07-16T08:25:06;19.20;1.00
17128;DHT22;8679;50.842;4.322;2023-07-16T08:27:32;19.20;1.00
17128;DHT22;8679;50.842;4.322;2023-07-16T08:29:58;19.30;1.00
17128;DHT22;8679;50.842;4.322;2023-07-16T08:32:24;19.40;1.00
17128;DHT22;8679;50.842;4.322;2023-07-16T08:34:49;19.40;1.00
17128;DHT22;8679;50.842;4.322;2023-07-16T08:37:15;19.50;99.90
17128;DHT22;8679;50.842;4.322;2023-07-16T08:39:41;19.80;99.90
17128;DHT22;8679;50.842;4.322;2023-07-16T08:42:09;19.90;1.00
17128;DHT22;8679;50.842;4.322;2023-07-16T08:44:37;20.10;1.00
17128;DHT22;8679;50.842;4.322;2023-07-16T08:47:03;20.30;1.00
17128;DHT22;8679;50.842;4.322;2023-07-16T08:49:30;20.30;99.90
17128;DHT22;8679;50.842;4.322;2023-07-16T08:51:56;20.30;99.90
17128;DHT22;8679;50.842;4.322;2023-07-16T08:54:22;20.10;99.90
17128;DHT22;8679;50.842;4.322;2023-07-16T08:56:49;20.10;99.90
17128;DHT22;8679;50.842;4.322;2023-07-16T08:59:15;20.00;99.90
17128;DHT22;8679;50.842;4.322;2023-07-16T09:01:41;20.10;99.90
17128;DHT22;8679;50.842;4.322;2023-07-16T09:04:07;20.10;99.90
17128;DHT22;8679;50.842;4.322;2023-07-16T09:06:33;20.20;99.90
17128;DHT22;8679;50.842;4.322;2023-07-16T09:08:59;20.30;99.90
17128;DHT22;8679;50.842;4.322;2023-07-16T09:11:24;20.10;99.90
17128;DHT22;8679;50.842;4.322;2023-07-16T09:13:50;20.10;99.90
17128;DHT22;8679;50.842;4.322;2023-07-16T09:16:20;20.20;99.90
17128;DHT22;8679;50.842;4.322;2023-07-16T09:18:47;20.20;99.90
17128;DHT22;8679;50.842;4.322;2023-07-16T09:21:13;20.10;99.90
17128;DHT22;8679;50.842;4.322;2023-07-16T09:23:39;20.10;99.90
17128;DHT22;8679;50.842;4.322;2023-07-16T09:26:07;20.10;99.90
17128;DHT22;8679;50.842;4.322;2023-07-16T09:28:33;20.20;99.90
17128;DHT22;8679;50.842;4.322;2023-07-16T09:31:06;20.10;99.90
17128;DHT22;8679;50.842;4.322;2023-07-16T09:33:33;20.20;99.90
17128;DHT22;8679;50.842;4.322;2023-07-16T09:35:59;20.20;99.90
17128;DHT22;8679;50.842;4.322;2023-07-16T09:38:25;20.20;99.90
17128;DHT22;8679;50.842;4.322;2023-07-16T09:40:52;20.20;99.90
17128;DHT22;8679;50.842;4.322;2023-07-16T09:43:19;20.20;99.90
17128;DHT22;8679;50.842;4.322;2023-07-16T09:45:46;20.30;94.30
17128;DHT22;8679;50.842;4.322;2023-07-16T09:48:12;20.40;62.70
17128;DHT22;8679;50.842;4.322;2023-07-16T09:50:38;20.30;97.60
17128;DHT22;8679;50.842;4.322;2023-07-16T09:53:05;20.20;92.10
17128;DHT22;8679;50.842;4.322;2023-07-16T09:55:35;20.20;99.90
17128;DHT22;8679;50.842;4.322;2023-07-16T09:58:02;20.10;99.90
17128;DHT22;8679;50.842;4.322;2023-07-16T10:00:29;20.20;99.90
17128;DHT22;8679;50.842;4.322;2023-07-16T10:02:57;20.30;99.90
17128;DHT22;8679;50.842;4.322;2023-07-16T10:05:27;20.20;99.90
17128;DHT22;8679;50.842;4.322;2023-07-16T10:07:58;20.20;99.90
17128;DHT22;8679;50.842;4.322;2023-07-16T10:10:45;20.20;99.90
17128;DHT22;8679;50.842;4.322;2023-07-16T10:13:14;20.00;99.90
17128;DHT22;8679;50.842;4.322;2023-07-16T10:15:54;20.00;99.90
17128;DHT22;8679;50.842;4.322;2023-07-16T10:18:24;19.90;99.90
17128;DHT22;8679;50.842;4.322;2023-07-16T10:20:51;20.00;99.90
17128;DHT22;8679;50.842;4.322;2023-07-16T10:23:18;20.00;99.90
17128;DHT22;8679;50.842;4.322;2023-07-16T10:26:01;20.10;99.90
17128;DHT22;8679;50.842;4.322;2023-07-16T10:28:26;20.20;99.90
17128;DHT22;8679;50.842;4.322;2023-07-16T10:30:52;20.30;99.90
17128;DHT22;8679;50.842;4.322;2023-07-16T10:33:18;20.40;99.90
17128;DHT22;8679;50.842;4.322;2023-07-16T10:35:46;20.40;99.90
17128;DHT22;8679;50.842;4.322;2023-07-16T10:38:12;20.30;99.90
17128;DHT22;8679;50.842;4.322;2023-07-16T10:40:44;20.20;99.90
17128;DHT22;8679;50.842;4.322;2023-07-16T10:43:11;20.00;99.90
17128;DHT22;8679;50.842;4.322;2023-07-16T10:45:36;20.00;99.90
17128;DHT22;8679;50.842;4.322;2023-07-16T10:48:03;20.10;99.90
17128;DHT22;8679;50.842;4.322;2023-07-16T10:50:31;20.20;99.90
17128;DHT22;8679;50.842;4.322;2023-07-16T10:52:57;20.30;99.90
17128;DHT22;8679;50.842;4.322;2023-07-16T10:55:23;20.40;99.90
17128;DHT22;8679;50.842;4.322;2023-07-16T10:57:50;20.40;99.90
17128;DHT22;8679;50.842;4.322;2023-07-16T11:00:17;20.40;95.10
17128;DHT22;8679;50.842;4.322;2023-07-16T11:02:43;20.30;99.90
17128;DHT22;8679;50.842;4.322;2023-07-16T11:05:18;20.40;99.90
17128;DHT22;8679;50.842;4.322;2023-07-16T11:07:46;20.30;99.90
17128;DHT22;8679;50.842;4.322;2023-07-16T11:10:12;19.90;99.90
17128;DHT22;8679;50.842;4.322;2023-07-16T11:12:41;19.90;1.00
17128;DHT22;8679;50.842;4.322;2023-07-16T11:15:07;19.80;99.90
17128;DHT22;8679;50.842;4.322;2023-07-16T11:17:33;19.80;1.00
17128;DHT22;8679;50.842;4.322;2023-07-16T11:20:00;19.70;1.00
17128;DHT22;8679;50.842;4.322;2023-07-16T11:22:27;19.70;1.00
17128;DHT22;8679;50.842;4.322;2023-07-16T11:24:53;19.70;1.00
17128;DHT22;8679;50.842;4.322;2023-07-16T11:27:27;19.80;1.00
17128;DHT22;8679;50.842;4.322;2023-07-16T11:29:55;20.00;99.90
17128;DHT22;8679;50.842;4.322;2023-07-16T11:32:45;20.10;1.00
17128;DHT22;8679;50.842;4.322;2023-07-16T11:35:16;20.10;1.00
17128;DHT22;8679;50.842;4.322;2023-07-16T11:37:43;20.20;1.00
17128;DHT22;8679;50.842;4.322;2023-07-16T11:40:10;20.30;1.00
17128;DHT22;8679;50.842;4.322;2023-07-16T11:42:38;20.40;1.00
17128;DHT22;8679;50.842;4.322;2023-07-16T11:45:05;20.70;99.90
17128;DHT22;8679;50.842;4.322;2023-07-16T11:47:39;20.90;1.00
17128;DHT22;8679;50.842;4.322;2023-07-16T11:50:05;21.10;1.00
17128;DHT22;8679;50.842;4.322;2023-07-16T11:52:31;21.00;99.90
17128;DHT22;8679;50.842;4.322;2023-07-16T11:54:58;21.10;1.00
17128;DHT22;8679;50.842;4.322;2023-07-16T11:57:29;21.40;99.90
17128;DHT22;8679;50.842;4.322;2023-07-16T11:59:54;21.50;99.90
17128;DHT22;8679;50.842;4.322;2023-07-16T12:02:21;21.60;99.90
17128;DHT22;8679;50.842;4.322;2023-07-16T12:04:47;22.00;1.00
17128;DHT22;8679;50.842;4.322;2023-07-16T12:07:13;22.10;1.00
17128;DHT22;8679;50.842;4.322;2023-07-16T12:09:38;22.10;1.00
17128;DHT22;8679;50.842;4.322;2023-07-16T12:12:04;22.20;1.00
17128;DHT22;8679;50.842;4.322;2023-07-16T12:14:31;22.20;1.00
17128;DHT22;8679;50.842;4.322;2023-07-16T12:16:56;22.40;99.90
17128;DHT22;8679;50.842;4.322;2023-07-16T12:19:22;22.50;99.90
17128;DHT22;8679;50.842;4.322;2023-07-16T12:21:48;22.40;99.90
17128;DHT22;8679;50.842;4.322;2023-07-16T12:24:14;22.10;99.90
17128;DHT22;8679;50.842;4.322;2023-07-16T12:26:39;21.70;99.90
17128;DHT22;8679;50.842;4.322;2023-07-16T12:29:05;21.50;99.90
17128;DHT22;8679;50.842;4.322;2023-07-16T12:31:31;21.50;99.90
17128;DHT22;8679;50.842;4.322;2023-07-16T12:33:57;21.50;99.90
17128;DHT22;8679;50.842;4.322;2023-07-16T12:36:23;21.60;99.90
17128;DHT22;8679;50.842;4.322;2023-07-16T12:38:49;21.70;99.90
17128;DHT22;8679;50.842;4.322;2023-07-16T12:41:15;21.70;99.90
17128;DHT22;8679;50.842;4.322;2023-07-16T12:43:41;21.90;99.90
17128;DHT22;8679;50.842;4.322;2023-07-16T12:46:07;22.10;99.90
17128;DHT22;8679;50.842;4.322;2023-07-16T12:48:33;22.40;99.90
17128;DHT22;8679;50.842;4.322;2023-07-16T12:50:59;22.80;16.10
17128;DHT22;8679;50.842;4.322;2023-07-16T12:53:25;22.80;1.00
17128;DHT22;8679;50.842;4.322;2023-07-16T12:55:51;23.00;1.00
17128;DHT22;8679;50.842;4.322;2023-07-16T12:58:17;22.90;1.00
17128;DHT22;8679;50.842;4.322;2023-07-16T13:00:42;23.00;1.00
17128;DHT22;8679;50.842;4.322;2023-07-16T13:03:08;22.90;1.00
17128;DHT22;8679;50.842;4.322;2023-07-16T13:05:37;22.90;1.00
17128;DHT22;8679;50.842;4.322;2023-07-16T13:08:04;23.00;1.00
17128;DHT22;8679;50.842;4.322;2023-07-16T13:10:30;23.40;99.90
17128;DHT22;8679;50.842;4.322;2023-07-16T13:12:56;23.30;99.90
17128;DHT22;8679;50.842;4.322;2023-07-16T13:15:21;23.30;99.90
17128;DHT22;8679;50.842;4.322;2023-07-16T13:17:47;22.90;99.90
17128;DHT22;8679;50.842;4.322;2023-07-16T13:20:16;22.80;99.90
17128;DHT22;8679;50.842;4.322;2023-07-16T13:22:42;22.50;99.90
17128;DHT22;8679;50.842;4.322;2023-07-16T13:25:08;22.30;99.90
17128;DHT22;8679;50.842;4.322;2023-07-16T13:27:34;22.20;99.90
17128;DHT22;8679;50.842;4.322;2023-07-16T13:30:00;22.10;99.90
17128;DHT22;8679;50.842;4.322;2023-07-16T13:32:26;22.00;1.00
17128;DHT22;8679;50.842;4.322;2023-07-16T13:34:52;21.90;1.00
17128;DHT22;8679;50.842;4.322;2023-07-16T13:37:17;21.90;1.00
17128;DHT22;8679;50.842;4.322;2023-07-16T13:39:43;22.10;1.00
17128;DHT22;8679;50.842;4.322;2023-07-16T13:42:09;22.40;1.00
17128;DHT22;8679;50.842;4.322;2023-07-16T13:44:36;22.20;99.90
17128;DHT22;8679;50.842;4.322;2023-07-16T13:47:03;22.00;99.90
17128;DHT22;8679;50.842;4.322;2023-07-16T13:49:29;22.00;99.90
17128;DHT22;8679;50.842;4.322;2023-07-16T13:51:55;21.90;99.90
17128;DHT22;8679;50.842;4.322;2023-07-16T13:54:20;21.80;99.90
17128;DHT22;8679;50.842;4.322;2023-07-16T13:56:46;21.90;99.90
17128;DHT22;8679;50.842;4.322;2023-07-16T13:59:12;21.80;99.90
17128;DHT22;8679;50.842;4.322;2023-07-16T14:01:39;22.30;99.90
17128;DHT22;8679;50.842;4.322;2023-07-16T14:04:05;22.60;99.90
17128;DHT22;8679;50.842;4.322;2023-07-16T14:06:31;22.90;99.90
17128;DHT22;8679;50.842;4.322;2023-07-16T14:08:56;23.20;99.90
17128;DHT22;8679;50.842;4.322;2023-07-16T14:11:22;23.40;99.90
17128;DHT22;8679;50.842;4.322;2023-07-16T14:13:48;23.50;99.90
17128;DHT22;8679;50.842;4.322;2023-07-16T14:16:22;23.50;99.90
17128;DHT22;8679;50.842;4.322;2023-07-16T14:18:52;23.60;99.90
17128;DHT22;8679;50.842;4.322;2023-07-16T14:21:18;23.90;99.90
17128;DHT22;8679;50.842;4.322;2023-07-16T14:23:44;23.90;99.90
17128;DHT22;8679;50.842;4.322;2023-07-16T14:26:10;23.60;99.90
17128;DHT22;8679;50.842;4.322;2023-07-16T14:28:36;23.00;99.90
17128;DHT22;8679;50.842;4.322;2023-07-16T14:31:02;23.10;99.90
17128;DHT22;8679;50.842;4.322;2023-07-16T14:33:28;23.40;99.90
17128;DHT22;8679;50.842;4.322;2023-07-16T14:35:53;23.60;90.60
17128;DHT22;8679;50.842;4.322;2023-07-16T14:38:19;23.40;41.70
17128;DHT22;8679;50.842;4.322;2023-07-16T14:40:45;23.50;1.00
17128;DHT22;8679;50.842;4.322;2023-07-16T14:43:11;23.80;1.00
17128;DHT22;8679;50.842;4.322;2023-07-16T14:45:37;23.80;1.00
17128;DHT22;8679;50.842;4.322;2023-07-16T14:48:04;23.80;1.00
17128;DHT22;8679;50.842;4.322;2023-07-16T14:50:30;24.00;1.00
17128;DHT22;8679;50.842;4.322;2023-07-16T14:52:55;24.30;1.00
17128;DHT22;8679;50.842;4.322;2023-07-16T14:55:21;24.50;1.00
17128;DHT22;8679;50.842;4.322;2023-07-16T14:57:48;24.80;1.00
17128;DHT22;8679;50.842;4.322;2023-07-16T15:00:14;24.70;1.00
17128;DHT22;8679;50.842;4.322;2023-07-16T15:02:40;24.50;1.00
17128;DHT22;8679;50.842;4.322;2023-07-16T15:05:07;24.20;1.00
17128;DHT22;8679;50.842;4.322;2023-07-16T15:07:34;23.80;1.00
17128;DHT22;8679;50.842;4.322;2023-07-16T15:10:00;23.60;1.00
17128;DHT22;8679;50.842;4.322;2023-07-16T15:12:26;23.60;1.00
17128;DHT22;8679;50.842;4.322;2023-07-16T15:14:52;23.80;1.00
17128;DHT22;8679;50.842;4.322;2023-07-16T15:17:17;23.80;1.00
17128;DHT22;8679;50.842;4.322;2023-07-16T15:19:44;24.10;1.00
17128;DHT22;8679;50.842;4.322;2023-07-16T15:22:09;23.80;1.00
17128;DHT22;8679;50.842;4.322;2023-07-16T15:24:36;24.40;1.00
17128;DHT22;8679;50.842;4.322;2023-07-16T15:27:02;25.40;1.00
17128;DHT22;8679;50.842;4.322;2023-07-16T15:29:29;26.20;1.00
17128;DHT22;8679;50.842;4.322;2023-07-16T15:31:54;25.90;1.00
17128;DHT22;8679;50.842;4.322;2023-07-16T15:34:21;25.60;1.00
17128;DHT22;8679;50.842;4.322;2023-07-16T15:36:46;25.80;1.00
17128;DHT22;8679;50.842;4.322;2023-07-16T15:39:12;25.70;1.00
17128;DHT22;8679;50.842;4.322;2023-07-16T15:41:37;25.50;1.00
17128;DHT22;8679;50.842;4.322;2023-07-16T15:44:03;25.50;1.00
17128;DHT22;8679;50.842;4.322;2023-07-16T15:46:30;24.80;1.00
17128;DHT22;8679;50.842;4.322;2023-07-16T15:48:55;24.60;1.00
17128;DHT22;8679;50.842;4.322;2023-07-16T15:51:21;24.00;1.00